Time;durP1;ratioP1;P1;durP2;ratioP2;P2;SDS_P1;SDS_P2;PMS_P1;PMS_P2;Temp;Humidity;BMP_temperature;BMP_pressure;BME280_temperature;BME280_humidity;BME280_pressure;Samples;Min_cycle;Max_cycle;Signal;HPM_P1;HPM_P2
2023/01/22 00:00:20;;;;;;;17.08;11.80;;;;;;;3.63;56.46;102490.00;688426;28;1209;-81
2023/01/22 00:00:41;;;;;;;17.10;11.60;;;;;;;3.63;56.40;102491.69;685508;28;1188;-81
2023/01/22 00:01:01;;;;;;;17.27;11.50;;;;;;;3.62;56.22;102484.72;688433;28;748;-81
2023/01/22 00:01:23;;;;;;;17.57;11.20;;;;;;;3.70;56.30;102496.59;688052;28;1210;-81
2023/01/22 00:01:43;;;;;;;17.23;11.45;;;;;;;3.55;56.36;102484.19;690966;28;1148;-81
2023/01/22 00:02:04;;;;;;;17.00;11.40;;;;;;;3.63;56.08;102487.44;696247;28;1176;-81
2023/01/22 00:02:25;;;;;;;16.98;11.50;;;;;;;3.64;56.05;102498.66;693541;28;1193;-81
2023/01/22 00:02:47;;;;;;;16.73;11.18;;;;;;;3.55;56.56;102488.44;688334;28;835;-81
2023/01/22 00:03:08;;;;;;;16.70;10.90;;;;;;;3.53;56.62;102479.66;688054;28;1322;-81
2023/01/22 00:03:29;;;;;;;15.98;11.02;;;;;;;3.58;56.46;102503.28;688005;28;1146;-81
2023/01/22 00:03:52;;;;;;;15.90;11.23;;;;;;;3.49;56.46;102482.78;689092;28;788;-81
2023/01/22 00:04:14;;;;;;;15.75;11.07;;;;;;;3.49;56.37;102475.03;688060;28;1329;-81
2023/01/22 00:04:35;;;;;;;14.98;10.50;;;;;;;3.50;56.55;102482.88;685721;28;1141;-81
2023/01/22 00:04:56;;;;;;;15.05;10.63;;;;;;;3.58;56.28;102477.47;688289;28;1423;-81
2023/01/22 00:05:17;;;;;;;15.15;11.00;;;;;;;3.59;56.32;102490.50;690011;28;1926;-81
2023/01/22 00:05:37;;;;;;;14.63;10.50;;;;;;;3.54;56.63;102477.22;690836;28;1059;-81
2023/01/22 00:05:58;;;;;;;14.73;10.33;;;;;;;3.53;56.67;102480.56;692895;28;1184;-81
2023/01/22 00:06:19;;;;;;;15.23;10.45;;;;;;;3.72;56.25;102492.44;688084;28;1180;-81
2023/01/22 00:06:40;;;;;;;16.50;10.98;;;;;;;3.60;56.09;102475.94;685378;28;1867;-81
2023/01/22 00:07:01;;;;;;;18.33;11.40;;;;;;;3.63;55.83;102471.94;685587;28;834;-81
2023/01/22 00:07:21;;;;;;;18.10;11.53;;;;;;;3.74;56.00;102475.38;688139;28;1024;-81
2023/01/22 00:07:42;;;;;;;17.67;11.50;;;;;;;3.63;55.87;102478.75;690998;28;1293;-81
2023/01/22 00:08:03;;;;;;;16.70;11.35;;;;;;;3.55;56.39;102471.28;690958;28;1170;-81
2023/01/22 00:08:23;;;;;;;15.23;10.90;;;;;;;3.50;56.11;102464.81;688141;28;1061;-81
2023/01/22 00:08:45;;;;;;;15.15;10.70;;;;;;;3.50;56.36;102475.13;685687;28;1183;-81
2023/01/22 00:09:06;;;;;;;15.48;10.80;;;;;;;3.51;56.13;102470.88;685355;28;1436;-81
2023/01/22 00:09:26;;;;;;;17.38;11.27;;;;;;;3.57;56.09;102484.31;688051;28;1087;-81
2023/01/22 00:09:47;;;;;;;17.93;11.27;;;;;;;3.48;56.48;102481.84;688350;28;899;-81
2023/01/22 00:10:08;;;;;;;18.52;11.85;;;;;;;3.53;56.39;102484.81;688178;28;1133;-81
2023/01/22 00:10:28;;;;;;;18.30;11.48;;;;;;;3.60;56.44;102487.16;688748;28;1306;-81
2023/01/22 00:10:50;;;;;;;18.02;11.45;;;;;;;3.55;56.35;102481.59;688258;28;1141;-81
2023/01/22 00:11:11;;;;;;;17.48;11.18;;;;;;;3.50;56.22;102480.31;685351;28;1221;-81
2023/01/22 00:11:31;;;;;;;15.80;11.03;;;;;;;3.59;55.83;102492.19;685692;28;1094;-81
2023/01/22 00:11:52;;;;;;;14.88;10.77;;;;;;;3.62;55.90;102489.88;685692;28;881;-81
2023/01/22 00:12:13;;;;;;;14.50;10.30;;;;;;;3.70;56.06;102494.00;685519;28;1047;-81
2023/01/22 00:12:34;;;;;;;15.90;10.95;;;;;;;3.76;56.05;102503.94;685578;28;1208;-81
2023/01/22 00:12:55;;;;;;;18.30;11.35;;;;;;;3.69;55.66;102485.34;685776;28;856;-81
2023/01/22 00:13:15;;;;;;;18.65;11.45;;;;;;;3.76;55.61;102493.59;690770;28;1370;-81
2023/01/22 00:13:36;;;;;;;22.47;11.40;;;;;;;3.72;56.07;102502.78;690986;28;1028;-81
2023/01/22 00:13:56;;;;;;;21.80;11.70;;;;;;;3.58;55.73;102485.22;691071;28;776;-81
2023/01/22 00:14:17;;;;;;;22.48;12.27;;;;;;;3.58;55.99;102487.78;691082;28;1105;-81
2023/01/22 00:14:39;;;;;;;17.73;11.70;;;;;;;3.61;55.82;102503.56;690893;28;1293;-81
2023/01/22 00:14:59;;;;;;;18.33;11.25;;;;;;;3.47;56.56;102490.38;691059;28;1294;-81
2023/01/22 00:15:20;;;;;;;18.10;11.30;;;;;;;3.49;56.49;102490.53;688311;28;1369;-81
2023/01/22 00:15:41;;;;;;;18.45;11.55;;;;;;;3.49;56.15;102488.81;691150;28;1235;-81
2023/01/22 00:16:02;;;;;;;18.38;11.95;;;;;;;3.54;56.11;102495.28;688474;28;1263;-81
2023/01/22 00:16:23;;;;;;;18.67;11.35;;;;;;;3.49;56.08;102494.00;691150;28;1118;-81
2023/01/22 00:16:43;;;;;;;19.47;11.77;;;;;;;3.49;56.26;102494.00;685631;28;839;-81
2023/01/22 00:17:04;;;;;;;19.10;11.93;;;;;;;3.48;56.28;102492.19;685532;28;1181;-81
2023/01/22 00:17:25;;;;;;;18.92;11.90;;;;;;;3.42;56.58;102499.41;685730;28;1159;-81
2023/01/22 00:17:45;;;;;;;17.05;11.38;;;;;;;3.23;56.69;102490.09;688475;28;835;-82
2023/01/22 00:18:06;;;;;;;16.90;11.20;;;;;;;3.25;56.99;102498.84;688415;28;1207;-82
2023/01/22 00:18:27;;;;;;;16.88;11.35;;;;;;;3.13;57.10;102484.94;691114;28;1232;-81
2023/01/22 00:18:48;;;;;;;17.17;11.48;;;;;;;3.21;57.29;102490.72;688561;28;1576;-81
2023/01/22 00:19:08;;;;;;;17.10;11.03;;;;;;;3.24;57.36;102493.59;688388;28;1135;-81
2023/01/22 00:19:29;;;;;;;16.40;11.20;;;;;;;3.23;56.98;102486.59;686008;28;968;-81
2023/01/22 00:19:50;;;;;;;15.70;10.82;;;;;;;3.22;57.51;102477.97;685867;28;807;-81
2023/01/22 00:20:11;;;;;;;14.93;10.63;;;;;;;3.15;57.46;102478.22;685634;28;1087;-80
2023/01/22 00:20:32;;;;;;;15.90;10.60;;;;;;;3.08;57.31;102469.06;688740;28;1165;-81
2023/01/22 00:20:53;;;;;;;16.67;11.10;;;;;;;3.22;57.04;102492.53;688912;28;1416;-81
2023/01/22 00:21:14;;;;;;;17.17;11.55;;;;;;;3.26;57.25;102480.03;688533;28;1384;-81
2023/01/22 00:21:35;;;;;;;16.25;11.50;;;;;;;3.32;56.87;102481.31;691098;28;1505;-81
2023/01/22 00:21:55;;;;;;;16.40;11.45;;;;;;;3.26;56.95;102472.28;691148;28;823;-81
2023/01/22 00:22:16;;;;;;;17.10;11.70;;;;;;;3.27;56.71;102468.91;688146;28;1192;-81
2023/01/22 00:22:36;;;;;;;16.80;11.50;;;;;;;3.29;56.93;102469.06;691014;28;1318;-81
2023/01/22 00:22:57;;;;;;;18.42;11.50;;;;;;;3.33;56.99;102477.97;688359;28;1081;-81
2023/01/22 00:23:18;;;;;;;16.87;11.10;;;;;;;3.38;56.65;102469.84;685450;28;1177;-81
2023/01/22 00:23:39;;;;;;;18.23;11.30;;;;;;;3.38;56.64;102484.44;688269;28;1210;-81
2023/01/22 00:24:00;;;;;;;15.82;10.75;;;;;;;3.41;57.02;102485.59;688370;28;863;-81
2023/01/22 00:24:21;;;;;;;17.20;11.25;;;;;;;3.36;56.80;102475.66;688105;28;1361;-81
2023/01/22 00:24:43;;;;;;;16.52;11.20;;;;;;;3.42;56.80;102482.25;691199;28;1027;-81
2023/01/22 00:25:05;;;;;;;16.13;11.23;;;;;;;3.32;56.71;102463.25;691105;28;760;-81
2023/01/22 00:25:45;;;;;;;14.45;10.50;;;;;;;3.51;56.65;102486.38;694291;28;704;-81
2023/01/22 00:26:14;;;;;;;15.35;10.70;;;;;;;3.53;56.46;102475.41;694796;28;1116;-81
2023/01/22 00:26:35;;;;;;;16.85;11.25;;;;;;;3.47;56.53;102479.13;690773;28;921;-80
2023/01/22 00:26:56;;;;;;;17.55;11.68;;;;;;;3.52;56.41;102463.28;687985;28;1369;-81
2023/01/22 00:27:17;;;;;;;17.48;11.98;;;;;;;3.67;56.25;102473.06;685434;28;1121;-81
2023/01/22 00:27:40;;;;;;;17.42;12.18;;;;;;;3.72;55.87;102469.19;684416;28;1412;-81
2023/01/22 00:28:01;;;;;;;17.45;12.20;;;;;;;3.71;56.30;102475.16;685499;28;1339;-81
2023/01/22 00:28:21;;;;;;;16.90;11.82;;;;;;;3.62;56.10;102462.34;688225;28;1087;-81
2023/01/22 00:28:46;;;;;;;16.67;11.47;;;;;;;3.73;55.78;102473.59;688267;28;1161;-81
2023/01/22 00:29:06;;;;;;;16.75;11.00;;;;;;;3.79;55.68;102475.78;685416;28;1655;-81
2023/01/22 00:29:27;;;;;;;16.23;10.95;;;;;;;3.81;55.62;102479.41;688140;28;1090;-81
2023/01/22 00:29:48;;;;;;;15.50;11.00;;;;;;;3.80;55.53;102465.56;688290;28;1172;-81
2023/01/22 00:30:09;;;;;;;15.75;11.40;;;;;;;3.74;55.59;102474.50;688014;28;1174;-81
2023/01/22 00:30:30;;;;;;;16.02;11.43;;;;;;;3.70;55.86;102481.97;688210;28;1358;-81
2023/01/22 00:31:00;;;;;;;16.17;11.40;;;;;;;3.73;56.13;102489.09;688318;28;928;-81
2023/01/22 00:31:20;;;;;;;15.07;10.90;;;;;;;3.75;55.87;102478.88;688031;28;1250;-81
2023/01/22 00:31:43;;;;;;;16.52;11.38;;;;;;;3.76;55.64;102472.94;688116;28;1138;-80
2023/01/22 00:32:03;;;;;;;17.25;11.60;;;;;;;3.79;55.89;102479.28;685377;28;1307;-81
2023/01/22 00:32:24;;;;;;;17.60;11.73;;;;;;;3.73;55.54;102475.28;687816;28;1276;-81
2023/01/22 00:32:45;;;;;;;16.25;11.40;;;;;;;3.74;55.82;102475.38;688359;28;760;-81
2023/01/22 00:33:07;;;;;;;16.25;11.13;;;;;;;3.74;55.92;102465.06;688030;28;1378;-81
2023/01/22 00:33:30;;;;;;;16.42;10.88;;;;;;;3.73;55.94;102465.84;682799;29;1355;-80
2023/01/22 00:33:51;;;;;;;16.55;10.40;;;;;;;3.79;55.46;102468.03;682980;29;968;-81
2023/01/22 00:34:11;;;;;;;16.77;10.48;;;;;;;3.76;55.54;102468.69;685449;28;1132;-81
2023/01/22 00:34:32;;;;;;;17.05;10.65;;;;;;;3.78;55.72;102461.97;685426;28;1240;-81
2023/01/22 00:34:53;;;;;;;17.60;11.40;;;;;;;3.77;55.80;102459.25;685630;28;1578;-81
2023/01/22 00:35:14;;;;;;;17.88;11.98;;;;;;;3.85;55.47;102478.88;685377;28;2161;-81
2023/01/22 00:35:34;;;;;;;17.75;11.88;;;;;;;3.83;55.10;102468.44;685585;28;1077;-81
2023/01/22 00:35:55;;;;;;;18.00;11.63;;;;;;;3.86;55.18;102470.34;685582;28;728;-81
2023/01/22 00:36:19;;;;;;;17.00;11.00;;;;;;;3.88;55.24;102473.06;685371;28;1380;-81
2023/01/22 00:36:41;;;;;;;17.25;11.38;;;;;;;3.87;55.34;102472.19;690795;28;1259;-81
2023/01/22 00:37:02;;;;;;;17.27;11.48;;;;;;;3.81;55.27;102471.66;688122;28;1424;-81
2023/01/22 00:37:23;;;;;;;16.70;11.57;;;;;;;3.80;55.68;102475.91;685502;28;1042;-81
2023/01/22 00:37:46;;;;;;;15.60;10.82;;;;;;;3.77;55.87;102478.25;690894;28;1332;-81
2023/01/22 00:38:07;;;;;;;14.55;10.55;;;;;;;3.69;55.62;102471.53;693349;28;1986;-81
2023/01/22 00:38:27;;;;;;;14.38;10.32;;;;;;;3.75;55.62;102472.06;693661;28;1150;-81
2023/01/22 00:38:49;;;;;;;14.70;10.40;;;;;;;3.68;55.49;102468.03;690935;28;886;-81
2023/01/22 00:39:09;;;;;;;15.25;10.18;;;;;;;3.72;55.82;102465.72;690757;28;1258;-81
2023/01/22 00:39:31;;;;;;;15.90;10.68;;;;;;;3.59;56.04;102468.94;690826;28;1518;-81
2023/01/22 00:39:53;;;;;;;15.82;10.70;;;;;;;3.51;56.13;102461.47;693596;28;1351;-81
2023/01/22 00:40:15;;;;;;;16.02;10.50;;;;;;;3.42;56.56;102461.59;690706;28;1263;-81
2023/01/22 00:40:36;;;;;;;16.45;10.35;;;;;;;3.30;56.89;102462.25;690950;28;1111;-82
2023/01/22 00:41:03;;;;;;;16.43;10.20;;;;;;;3.29;56.62;102458.75;685582;28;1216;-81
2023/01/22 00:41:24;;;;;;;15.43;10.38;;;;;;;3.20;57.09;102458.88;688134;28;1047;-81
2023/01/22 00:42:03;;;;;;;15.85;10.57;;;;;;;3.20;56.98;102468.28;688088;28;1193;-81
2023/01/22 00:42:24;;;;;;;15.02;10.80;;;;;;;3.21;56.95;102465.84;682604;28;1233;-81
2023/01/22 00:42:45;;;;;;;15.60;10.80;;;;;;;3.26;57.12;102459.38;685488;28;1226;-81
2023/01/22 00:43:06;;;;;;;15.05;10.65;;;;;;;3.26;57.08;102459.38;685396;28;1136;-81
2023/01/22 00:43:26;;;;;;;16.45;10.65;;;;;;;3.32;56.84;102461.59;682763;28;1254;-81
2023/01/22 00:43:47;;;;;;;16.63;10.80;;;;;;;3.27;56.61;102448.28;682489;29;1025;-81
2023/01/22 00:44:08;;;;;;;17.00;10.60;;;;;;;3.40;57.10;102469.97;682832;29;1121;-81
2023/01/22 00:44:28;;;;;;;15.98;10.52;;;;;;;3.19;57.20;102451.88;688225;28;1022;-81
2023/01/22 00:44:49;;;;;;;14.65;10.07;;;;;;;3.18;57.05;102459.50;688350;28;846;-81
2023/01/22 00:45:13;;;;;;;14.77;10.18;;;;;;;3.20;57.61;102466.63;688029;28;1462;-81
2023/01/22 00:45:33;;;;;;;15.68;10.10;;;;;;;3.17;57.20;102461.19;688167;28;2011;-81
2023/01/22 00:45:54;;;;;;;15.23;10.00;;;;;;;3.25;57.27;102461.84;682887;28;1060;-81
2023/01/22 00:46:16;;;;;;;14.33;9.90;;;;;;;3.34;56.81;102470.38;690866;28;1135;-81
2023/01/22 00:46:37;;;;;;;13.30;9.55;;;;;;;3.19;57.57;102461.31;690833;28;1102;-81
2023/01/22 00:46:57;;;;;;;13.60;9.68;;;;;;;3.20;57.30;102464.03;687628;28;1071;-81
2023/01/22 00:47:18;;;;;;;14.50;9.90;;;;;;;3.19;57.08;102471.63;688055;28;1191;-81
2023/01/22 00:47:39;;;;;;;14.57;9.93;;;;;;;3.08;57.26;102453.56;690856;28;1305;-81
2023/01/22 00:48:00;;;;;;;15.15;10.15;;;;;;;3.11;57.40;102460.66;693769;28;904;-81
2023/01/22 00:48:21;;;;;;;15.00;9.93;;;;;;;3.09;57.18;102460.53;693412;28;1188;-81
2023/01/22 00:48:48;;;;;;;15.15;9.93;;;;;;;3.09;57.47;102475.09;690852;28;869;-81
2023/01/22 00:49:09;;;;;;;14.35;9.70;;;;;;;3.05;57.45;102467.88;687966;28;1402;-81
2023/01/22 00:49:29;;;;;;;14.13;10.00;;;;;;;3.15;57.63;102478.22;688217;28;983;-81
2023/01/22 00:49:50;;;;;;;14.98;10.18;;;;;;;3.17;57.41;102463.75;688288;28;823;-81
2023/01/22 00:50:11;;;;;;;14.15;10.30;;;;;;;3.18;57.23;102459.50;688018;28;1125;-81
2023/01/22 00:50:32;;;;;;;14.73;10.40;;;;;;;3.06;57.49;102464.53;690875;28;981;-81
2023/01/22 00:50:53;;;;;;;15.48;10.52;;;;;;;3.08;57.44;102452.66;690924;28;1060;-81
2023/01/22 00:51:14;;;;;;;14.93;10.15;;;;;;;3.16;57.63;102469.69;688424;28;1236;-81
2023/01/22 00:51:38;;;;;;;15.57;9.90;;;;;;;3.23;57.31;102460.78;686027;28;1111;-81
2023/01/22 00:51:58;;;;;;;15.60;9.95;;;;;;;3.26;57.20;102446.47;688916;28;736;-81
2023/01/22 00:52:19;;;;;;;19.00;10.37;;;;;;;3.27;56.82;102456.03;688513;28;1295;-81
2023/01/22 00:52:40;;;;;;;17.20;10.30;;;;;;;3.26;57.08;102451.63;686103;28;1107;-81
2023/01/22 00:53:02;;;;;;;17.00;10.10;;;;;;;3.34;56.96;102453.97;683410;28;1160;-81
2023/01/22 00:53:23;;;;;;;14.85;9.80;;;;;;;3.39;56.52;102450.09;688662;28;1051;-80
2023/01/22 00:53:44;;;;;;;15.73;10.47;;;;;;;3.47;56.80;102459.41;691417;28;1024;-81
2023/01/22 00:54:04;;;;;;;16.23;10.52;;;;;;;3.42;56.59;102450.34;688609;28;1132;-81
2023/01/22 00:54:25;;;;;;;16.70;10.60;;;;;;;3.28;56.69;102450.13;691228;28;1186;-80
2023/01/22 00:54:46;;;;;;;18.38;10.27;;;;;;;3.27;57.06;102463.75;691498;28;1341;-81
2023/01/22 00:55:07;;;;;;;18.88;10.30;;;;;;;3.36;56.59;102455.03;691357;28;1102;-81
2023/01/22 00:55:29;;;;;;;17.60;10.20;;;;;;;3.42;56.54;102455.50;691463;28;1124;-81
2023/01/22 00:55:52;;;;;;;14.80;9.85;;;;;;;3.49;56.64;102457.84;692203;28;881;-81
2023/01/22 00:56:13;;;;;;;14.88;10.30;;;;;;;3.47;56.44;102449.06;691319;28;1116;-81
2023/01/22 00:56:34;;;;;;;15.05;10.40;;;;;;;3.31;56.49;102445.97;692494;28;961;-81
2023/01/22 00:56:55;;;;;;;15.00;10.30;;;;;;;3.23;56.65;102442.72;694159;28;763;-81
2023/01/22 00:57:20;;;;;;;13.60;9.63;;;;;;;3.22;57.10;102454.75;691234;28;970;-81
2023/01/22 00:57:41;;;;;;;13.25;9.70;;;;;;;3.26;56.82;102443.91;688712;28;1168;-81
2023/01/22 00:58:02;;;;;;;12.55;9.40;;;;;;;3.26;56.81;102448.16;688670;28;1072;-82
2023/01/22 00:58:22;;;;;;;14.10;9.57;;;;;;;3.37;56.50;102455.13;688599;28;1166;-81
2023/01/22 00:58:44;;;;;;;13.88;9.63;;;;;;;3.30;56.86;102444.19;691414;28;1146;-81
2023/01/22 00:59:09;;;;;;;15.15;9.85;;;;;;;3.35;56.70;102456.69;691379;28;1178;-81
2023/01/22 00:59:29;;;;;;;15.85;10.00;;;;;;;3.40;56.74;102451.91;688644;28;1041;-81
2023/01/22 00:59:51;;;;;;;16.00;10.13;;;;;;;3.35;56.33;102448.94;685990;28;1271;-81
2023/01/22 01:00:16;;;;;;;15.30;10.10;;;;;;;3.34;56.74;102453.97;688561;28;1139;-82
2023/01/22 01:00:37;;;;;;;15.18;9.77;;;;;;;3.36;56.31;102452.44;686015;28;1056;-81
2023/01/22 01:01:01;;;;;;;14.75;9.55;;;;;;;3.39;56.38;102450.09;686160;28;819;-81
2023/01/22 01:01:21;;;;;;;14.63;9.40;;;;;;;3.42;56.29;102456.44;685846;28;1277;-81
2023/01/22 01:01:42;;;;;;;16.60;9.57;;;;;;;3.49;56.05;102457.84;688695;28;1023;-81
2023/01/22 01:02:03;;;;;;;17.20;10.10;;;;;;;3.40;56.19;102450.25;688708;28;1144;-81
2023/01/22 01:02:23;;;;;;;16.35;10.27;;;;;;;3.46;56.42;102446.34;688541;28;1448;-81
2023/01/22 01:03:25;;;;;;;14.27;9.77;;;;;;;3.39;56.39;102456.16;691252;28;1127;-81
2023/01/22 01:03:46;;;;;;;14.60;9.83;;;;;;;3.30;56.73;102460.53;691326;28;1147;-81
2023/01/22 01:04:06;;;;;;;14.13;9.43;;;;;;;3.33;56.97;102449.59;685952;28;1356;-81
2023/01/22 01:04:27;;;;;;;12.73;9.05;;;;;;;3.35;56.41;102448.03;686022;28;989;-81
2023/01/22 01:04:49;;;;;;;13.20;8.98;;;;;;;3.43;56.65;102454.75;683381;28;929;-81
2023/01/22 01:05:10;;;;;;;14.15;9.65;;;;;;;3.37;56.58;102446.50;685866;28;998;-81
2023/01/22 01:05:32;;;;;;;15.68;10.27;;;;;;;3.41;56.40;102459.78;685926;28;1914;-81
2023/01/22 01:05:53;;;;;;;14.63;10.05;;;;;;;3.45;56.79;102468.69;688785;28;819;-81
2023/01/22 01:06:19;;;;;;;14.30;9.70;;;;;;;3.41;56.40;102453.72;688623;28;1076;-81
2023/01/22 01:06:40;;;;;;;14.20;10.05;;;;;;;3.35;56.92;102443.78;691313;28;981;-81
2023/01/22 01:07:00;;;;;;;14.77;10.10;;;;;;;3.42;56.61;102458.09;688832;28;740;-81
2023/01/22 01:07:21;;;;;;;15.18;10.60;;;;;;;3.41;56.25;102458.88;687859;28;1199;-81
2023/01/22 01:07:42;;;;;;;15.73;10.43;;;;;;;3.42;56.76;102460.69;691307;28;1053;-81
2023/01/22 01:08:03;;;;;;;16.25;10.45;;;;;;;3.40;56.59;102457.06;691359;28;1395;-81
2023/01/22 01:08:25;;;;;;;15.30;9.77;;;;;;;3.33;56.91;102453.09;691280;28;1392;-80
2023/01/22 01:08:46;;;;;;;14.32;9.38;;;;;;;3.40;56.89;102451.91;691474;28;925;-82
2023/01/22 01:09:08;;;;;;;13.40;9.20;;;;;;;3.41;56.41;102453.72;691336;28;1112;-81
2023/01/22 01:09:29;;;;;;;14.13;9.65;;;;;;;3.44;56.79;102454.00;688628;28;1942;-81
2023/01/22 01:09:50;;;;;;;14.35;9.80;;;;;;;3.48;56.66;102463.78;688835;28;781;-81
2023/01/22 01:10:10;;;;;;;14.10;9.63;;;;;;;3.39;56.74;102452.69;691385;28;1182;-81
2023/01/22 01:10:31;;;;;;;13.63;9.50;;;;;;;3.37;56.75;102441.34;688632;28;1365;-81
2023/01/22 01:11:00;;;;;;;14.77;9.38;;;;;;;3.40;57.04;102449.34;686059;28;898;-82
2023/01/22 01:11:23;;;;;;;14.40;9.15;;;;;;;3.44;56.94;102454.00;683207;28;1231;-81
2023/01/22 01:11:45;;;;;;;13.43;9.00;;;;;;;3.43;56.89;102447.00;686025;28;864;-81
2023/01/22 01:12:08;;;;;;;12.60;9.23;;;;;;;3.30;57.22;102444.19;688657;28;1085;-81
2023/01/22 01:12:28;;;;;;;14.82;9.75;;;;;;;3.19;57.28;102440.69;691360;28;1053;-82
2023/01/22 01:12:49;;;;;;;15.65;9.57;;;;;;;3.20;57.26;102438.25;688821;28;744;-81
2023/01/22 01:13:13;;;;;;;14.55;9.15;;;;;;;3.18;57.62;102459.50;691108;28;1130;-81
2023/01/22 01:13:37;;;;;;;13.88;9.23;;;;;;;3.13;57.64;102459.13;691387;28;1144;-81
2023/01/22 01:13:58;;;;;;;13.65;9.50;;;;;;;3.00;57.76;102444.28;691465;28;1164;-81
2023/01/22 01:14:19;;;;;;;13.43;9.40;;;;;;;3.06;57.80;102443.88;691276;28;1241;-81
2023/01/22 01:14:39;;;;;;;13.07;9.40;;;;;;;3.03;57.69;102438.44;688826;28;1131;-81
2023/01/22 01:15:08;;;;;;;13.00;9.23;;;;;;;2.95;58.37;102443.84;691534;28;818;-81
2023/01/22 01:15:29;;;;;;;12.98;9.32;;;;;;;3.09;57.71;102446.72;691421;28;1218;-81
2023/01/22 01:15:58;;;;;;;13.93;9.43;;;;;;;3.20;57.48;102458.88;691478;28;945;-81
2023/01/22 01:16:22;;;;;;;13.43;9.20;;;;;;;3.19;57.62;102440.69;691219;28;1102;-81
2023/01/22 01:16:43;;;;;;;12.93;9.57;;;;;;;3.17;57.70;102434.50;688834;28;814;-81
2023/01/22 01:17:04;;;;;;;13.75;9.50;;;;;;;3.26;57.34;102443.00;685982;28;1117;-81
2023/01/22 01:17:25;;;;;;;14.63;9.98;;;;;;;3.30;57.46;102436.44;685962;28;1302;-81
2023/01/22 01:17:45;;;;;;;15.20;10.10;;;;;;;3.28;57.45;102429.47;686070;28;732;-81
2023/01/22 01:18:11;;;;;;;13.95;10.00;;;;;;;3.33;57.16;102431.50;683243;28;1172;-81
2023/01/22 01:18:34;;;;;;;14.90;9.65;;;;;;;3.32;57.19;102445.19;688680;28;1044;-81
2023/01/22 01:18:59;;;;;;;15.80;9.70;;;;;;;3.33;57.30;102444.41;688702;28;1276;-81
2023/01/22 01:19:20;;;;;;;15.40;9.52;;;;;;;3.28;57.15;102437.22;688633;28;1112;-82
2023/01/22 01:19:44;;;;;;;15.85;9.75;;;;;;;3.32;57.04;102437.44;691585;28;1008;-81
2023/01/22 01:20:06;;;;;;;16.40;10.10;;;;;;;3.29;57.39;102427.78;691575;28;1209;-82
2023/01/22 01:20:26;;;;;;;15.63;9.82;;;;;;;3.28;57.21;102434.63;694169;28;1182;-81
2023/01/22 01:20:53;;;;;;;14.50;9.70;;;;;;;3.29;57.22;102435.50;694364;28;1232;-81
2023/01/22 01:21:15;;;;;;;14.15;9.32;;;;;;;3.33;57.00;102429.84;691462;28;1393;-82
2023/01/22 01:21:37;;;;;;;14.23;9.32;;;;;;;3.34;57.02;102441.06;694787;28;1075;-81
2023/01/22 01:21:58;;;;;;;13.82;9.23;;;;;;;3.39;56.92;102447.53;692239;28;850;-81
2023/01/22 01:22:19;;;;;;;13.65;9.18;;;;;;;3.38;57.02;102438.88;688851;28;1165;-82
2023/01/22 01:22:39;;;;;;;13.13;8.95;;;;;;;3.33;56.78;102452.16;689270;28;1136;-82
2023/01/22 01:23:00;;;;;;;13.10;9.27;;;;;;;3.21;57.19;102434.88;689368;28;1134;-81
2023/01/22 01:23:21;;;;;;;12.20;8.90;;;;;;;3.35;57.19;102455.78;689287;28;1089;-81
2023/01/22 01:23:42;;;;;;;12.50;8.85;;;;;;;3.30;56.97;102445.06;689566;28;1311;-81
2023/01/22 01:24:03;;;;;;;12.65;8.70;;;;;;;3.25;57.10;102436.94;686847;28;1151;-81
2023/01/22 01:24:25;;;;;;;13.63;9.07;;;;;;;3.21;57.02;102429.72;689422;28;1361;-81
2023/01/22 01:24:46;;;;;;;12.68;8.90;;;;;;;3.27;57.32;102429.31;692186;28;1139;-80
2023/01/22 01:25:06;;;;;;;12.00;8.67;;;;;;;3.31;57.16;102444.28;689766;28;1256;-80
2023/01/22 01:25:27;;;;;;;11.80;8.57;;;;;;;3.26;57.01;102435.25;689675;28;1910;-81
2023/01/22 01:25:47;;;;;;;12.43;8.80;;;;;;;3.27;57.21;102440.53;689904;28;755;-81
2023/01/22 01:26:14;;;;;;;12.40;8.63;;;;;;;3.11;57.37;102445.16;692165;28;1103;-80
2023/01/22 01:26:34;;;;;;;12.82;8.70;;;;;;;2.99;57.86;102430.47;689284;28;899;-81
2023/01/22 01:26:56;;;;;;;13.18;8.70;;;;;;;2.99;57.60;102438.19;689541;28;850;-81
2023/01/22 01:27:17;;;;;;;12.67;8.80;;;;;;;3.07;57.62;102440.53;689150;28;1054;-81
2023/01/22 01:27:38;;;;;;;13.23;8.80;;;;;;;3.14;57.69;102442.88;694981;28;1007;-81
2023/01/22 01:27:59;;;;;;;12.85;9.13;;;;;;;3.14;57.62;102433.44;694773;28;767;-81
2023/01/22 01:28:20;;;;;;;13.38;9.40;;;;;;;3.21;57.69;102450.38;691803;28;1251;-81
2023/01/22 01:28:44;;;;;;;12.52;9.30;;;;;;;3.20;57.53;102433.06;691760;28;1274;-81
2023/01/22 01:29:06;;;;;;;13.27;9.35;;;;;;;3.27;57.50;102439.66;688990;28;1008;-81
2023/01/22 01:29:27;;;;;;;13.02;9.00;;;;;;;3.25;57.29;102438.63;689139;28;1009;-81
2023/01/22 01:29:47;;;;;;;13.27;8.93;;;;;;;3.24;57.46;102439.41;691889;28;863;-81
2023/01/22 01:30:09;;;;;;;13.23;9.00;;;;;;;3.28;57.58;102447.53;691733;28;1204;-80
2023/01/22 01:30:29;;;;;;;13.73;9.40;;;;;;;3.37;57.18;102443.91;689147;28;919;-83
2023/01/22 01:30:50;;;;;;;13.60;9.60;;;;;;;3.41;56.88;102439.16;689177;28;938;-83
2023/01/22 01:31:14;;;;;;;14.13;9.67;;;;;;;3.42;56.77;102447.78;688809;28;1462;-83
2023/01/22 01:31:36;;;;;;;13.50;9.60;;;;;;;3.31;56.98;102440.81;689035;28;1135;-83
2023/01/22 01:31:56;;;;;;;14.35;9.52;;;;;;;3.33;57.29;102444.41;689185;28;870;-83
2023/01/22 01:32:17;;;;;;;14.18;9.25;;;;;;;3.34;57.11;102435.91;689156;28;1181;-83
2023/01/22 01:32:38;;;;;;;14.07;8.85;;;;;;;3.27;57.05;102435.38;686519;28;1010;-83
2023/01/22 01:32:58;;;;;;;12.17;8.27;;;;;;;3.37;57.11;102443.91;686434;28;1084;-83
2023/01/22 01:33:19;;;;;;;12.63;8.75;;;;;;;3.44;57.29;102441.09;688831;28;1088;-83
2023/01/22 01:33:41;;;;;;;12.40;8.77;;;;;;;3.53;56.68;102443.53;689094;28;1211;-83
2023/01/22 01:34:03;;;;;;;12.63;9.10;;;;;;;3.50;56.94;102451.91;688956;28;989;-83
2023/01/22 01:34:24;;;;;;;11.07;8.60;;;;;;;3.54;56.80;102460.81;686110;28;1266;-83
2023/01/22 01:34:46;;;;;;;12.05;8.95;;;;;;;3.48;56.54;102450.88;686136;28;1728;-83
2023/01/22 01:35:07;;;;;;;11.88;8.82;;;;;;;3.44;56.75;102438.50;686028;28;1096;-82
2023/01/22 01:35:29;;;;;;;12.32;8.75;;;;;;;3.52;56.45;102452.97;688864;28;1026;-83
2023/01/22 01:35:58;;;;;;;12.23;8.93;;;;;;;3.49;56.85;102442.34;686147;28;1170;-83
2023/01/22 01:36:21;;;;;;;13.07;8.90;;;;;;;3.43;56.51;102436.66;685953;28;1116;-83
2023/01/22 01:36:41;;;;;;;14.05;9.50;;;;;;;3.49;56.54;102442.34;686122;28;1425;-83
2023/01/22 01:37:02;;;;;;;13.70;9.50;;;;;;;3.52;56.62;102452.03;688700;28;1373;-83
2023/01/22 01:37:23;;;;;;;13.45;9.27;;;;;;;3.59;56.29;102453.44;688597;28;1181;-83
2023/01/22 01:37:43;;;;;;;12.93;9.02;;;;;;;3.56;56.45;102439.50;688944;28;984;-83
2023/01/22 01:38:05;;;;;;;13.07;9.37;;;;;;;3.64;56.20;102453.09;691326;28;1193;-83
2023/01/22 01:38:25;;;;;;;13.27;9.73;;;;;;;3.62;56.63;102449.44;691556;28;1132;-83
2023/01/22 01:38:47;;;;;;;13.17;9.70;;;;;;;3.61;56.36;102441.59;694349;28;799;-83
2023/01/22 01:39:08;;;;;;;13.82;9.70;;;;;;;3.66;56.19;102448.03;688584;28;1170;-83
2023/01/22 01:39:29;;;;;;;13.07;9.30;;;;;;;3.62;56.45;102438.22;688662;28;1734;-83
2023/01/22 01:39:51;;;;;;;12.68;9.20;;;;;;;3.56;56.17;102431.78;688777;28;1344;-83
2023/01/22 01:40:12;;;;;;;11.93;9.20;;;;;;;3.67;56.18;102448.16;688573;28;1318;-83
2023/01/22 01:40:33;;;;;;;12.77;9.20;;;;;;;3.72;56.36;102451.13;688710;28;988;-83
2023/01/22 01:40:54;;;;;;;12.32;9.10;;;;;;;3.61;56.25;102432.16;688753;28;1385;-83
2023/01/22 01:41:19;;;;;;;13.90;9.38;;;;;;;3.63;56.14;102447.78;688604;28;989;-83
2023/01/22 01:41:40;;;;;;;15.15;9.57;;;;;;;3.63;56.11;102445.19;685977;28;2080;-83
2023/01/22 01:42:00;;;;;;;16.08;9.52;;;;;;;3.64;56.26;102444.41;686098;28;838;-83
2023/01/22 01:42:33;;;;;;;14.50;9.20;;;;;;;3.56;56.34;102439.50;685987;28;1243;-83
2023/01/22 01:42:53;;;;;;;14.93;9.60;;;;;;;3.60;56.57;102434.63;686252;28;1211;-83
2023/01/22 01:43:16;;;;;;;14.48;9.48;;;;;;;3.56;56.39;102433.47;688630;28;1054;-83
2023/01/22 01:43:36;;;;;;;14.02;9.38;;;;;;;3.69;56.06;102450.88;691399;28;1115;-83